createdAt,value
2022-09-04T00:01:11.943Z,0
2022-09-04T00:07:11.933Z,0
2022-09-04T00:13:11.940Z,0
2022-09-04T00:19:11.935Z,0
2022-09-04T00:25:11.922Z,0
2022-09-04T00:31:11.999Z,0
2022-09-04T00:37:11.938Z,0
2022-09-04T00:43:11.941Z,0
2022-09-04T00:49:11.921Z,0
2022-09-04T00:55:11.939Z,0
2022-09-04T01:01:12.014Z,0
2022-09-04T01:07:11.967Z,0
2022-09-04T01:13:12.016Z,0
2022-09-04T01:19:11.926Z,0
2022-09-04T01:25:12.005Z,0
2022-09-04T01:31:11.938Z,0
2022-09-04T01:37:11.937Z,0
2022-09-04T01:43:11.937Z,0
2022-09-04T01:49:11.955Z,0
2022-09-04T01:55:11.949Z,0
2022-09-04T02:01:11.987Z,0
2022-09-04T02:07:11.968Z,0
2022-09-04T02:13:12.006Z,0
2022-09-04T02:19:11.957Z,0
2022-09-04T02:25:11.992Z,0
2022-09-04T02:31:12.025Z,0
2022-09-04T02:37:11.937Z,0
2022-09-04T02:43:11.957Z,0
2022-09-04T02:49:11.944Z,0
2022-09-04T02:55:11.963Z,0
2022-09-04T03:01:12.065Z,0
2022-09-04T03:07:11.951Z,0
2022-09-04T03:13:11.965Z,0
2022-09-04T03:19:11.953Z,0
2022-09-04T03:25:11.975Z,0
2022-09-04T03:31:11.994Z,0
2022-09-04T03:37:11.972Z,0
2022-09-04T03:43:11.963Z,0
2022-09-04T03:49:11.958Z,0
2022-09-04T03:55:11.982Z,0
2022-09-04T04:01:12.014Z,0
2022-09-04T04:07:11.951Z,0
2022-09-04T04:13:11.964Z,0
2022-09-04T04:19:11.958Z,0
2022-09-04T04:25:11.956Z,0
2022-09-04T04:31:12.039Z,0
2022-09-04T04:37:11.977Z,0
2022-09-04T04:43:11.984Z,0
2022-09-04T04:49:11.958Z,0
2022-09-04T04:55:11.983Z,0
2022-09-04T05:01:12.000Z,0
2022-09-04T05:07:11.974Z,0
2022-09-04T05:13:11.991Z,0
2022-09-04T05:19:11.974Z,0
2022-09-04T05:25:11.996Z,0
2022-09-04T05:31:12.100Z,0
2022-09-04T05:37:11.975Z,0
2022-09-04T05:43:11.975Z,0
2022-09-04T05:49:11.962Z,0
2022-09-04T05:55:11.991Z,0
2022-09-04T06:01:11.976Z,0
2022-09-04T06:07:11.962Z,0
2022-09-04T06:13:11.959Z,0
2022-09-04T06:19:11.976Z,0
2022-09-04T06:25:11.994Z,0
2022-09-04T06:31:11.994Z,0
2022-09-04T06:37:11.983Z,0
2022-09-04T06:43:11.959Z,0
2022-09-04T06:49:11.971Z,2.6
2022-09-04T06:55:11.983Z,5.2
2022-09-04T07:01:12.090Z,7.2
2022-09-04T07:07:12.022Z,8.2
2022-09-04T07:13:11.981Z,9.2
2022-09-04T07:19:12.003Z,10.2
2022-09-04T07:25:12.023Z,10.9
2022-09-04T07:31:12.071Z,11.2
2022-09-04T07:37:12.028Z,11.7
2022-09-04T07:43:12.029Z,10.7
2022-09-04T07:49:11.988Z,12.4
2022-09-04T07:55:12.012Z,13
2022-09-04T08:01:12.071Z,13.4
2022-09-04T08:07:12.021Z,14.4
2022-09-04T08:13:12.026Z,14.2
2022-09-04T08:19:12.003Z,14.1
2022-09-04T08:25:12.003Z,16.8
2022-09-04T08:31:12.145Z,15.4
2022-09-04T08:37:12.010Z,16.2
2022-09-04T08:43:12.029Z,16.8
2022-09-04T08:49:12.016Z,15.1
2022-09-04T08:55:12.072Z,15.9
2022-09-04T09:01:12.085Z,17.7
2022-09-04T09:07:12.018Z,17.3
2022-09-04T09:13:12.039Z,15.6
2022-09-04T09:19:12.024Z,18.8
2022-09-04T09:25:12.089Z,19.3
2022-09-04T09:31:12.096Z,18.9
2022-09-04T09:37:12.085Z,18.1
2022-09-04T09:43:12.068Z,19
2022-09-04T09:49:15.011Z,18.5
2022-09-04T09:55:12.099Z,18.8
2022-09-04T10:01:12.106Z,19.8
2022-09-04T10:07:12.074Z,18.4
2022-09-04T10:13:12.068Z,18
2022-09-04T10:19:12.104Z,18.6
2022-09-04T10:25:12.074Z,19.1
2022-09-04T10:31:12.180Z,19.5
2022-09-04T10:37:12.087Z,20.8
2022-09-04T10:43:12.097Z,20.5
2022-09-04T10:49:12.086Z,18.3
2022-09-04T10:55:12.107Z,17.8
2022-09-04T11:01:12.211Z,17.7
2022-09-04T11:07:12.113Z,19.6
2022-09-04T11:13:12.088Z,19.6
2022-09-04T11:19:12.106Z,16
2022-09-04T11:25:12.109Z,15.1
2022-09-04T11:31:12.152Z,16
2022-09-04T11:37:12.134Z,15.1
2022-09-04T11:43:12.097Z,15.2
2022-09-04T11:49:12.119Z,14.8
2022-09-04T11:55:12.097Z,15.6
2022-09-04T12:01:12.117Z,14.7
2022-09-04T12:07:12.108Z,14.9
2022-09-04T12:13:15.207Z,13.5
2022-09-04T12:19:12.124Z,13
2022-09-04T12:25:12.106Z,13
2022-09-04T12:31:12.136Z,12.8
2022-09-04T12:37:12.108Z,13
2022-09-04T12:43:12.141Z,14
2022-09-04T12:49:12.176Z,13.8
2022-09-04T12:55:12.137Z,14.5
2022-09-04T13:01:12.259Z,15
2022-09-04T13:07:16.196Z,16
2022-09-04T13:13:12.133Z,15.1
2022-09-04T13:19:12.156Z,16.1
2022-09-04T13:25:12.140Z,16.4
2022-09-04T13:31:12.197Z,15.7
2022-09-04T13:37:12.149Z,16.2
2022-09-04T13:43:12.129Z,15.7
2022-09-04T13:49:12.167Z,15.8
2022-09-04T13:55:12.171Z,16.1
2022-09-04T14:01:12.249Z,16
2022-09-04T14:07:12.163Z,16.1
2022-09-04T14:13:12.164Z,16.1
2022-09-04T14:19:15.597Z,15.5
2022-09-04T14:25:12.195Z,16.1
2022-09-04T14:31:12.220Z,15.8
2022-09-04T14:37:12.166Z,16.1
2022-09-04T14:43:12.199Z,15.9
2022-09-04T14:49:12.173Z,15
2022-09-04T14:55:12.201Z,14.8
2022-09-04T15:01:12.351Z,14.8
2022-09-04T15:07:12.443Z,14.9
2022-09-04T15:13:12.196Z,16.1
2022-09-04T15:19:12.189Z,15.9
2022-09-04T15:25:12.188Z,15
2022-09-04T15:31:15.946Z,14.5
2022-09-04T15:37:12.176Z,14.6
2022-09-04T15:43:12.204Z,14.7
2022-09-04T15:49:12.189Z,14.5
2022-09-04T15:55:12.226Z,14.9
2022-09-04T16:01:12.247Z,14.8
2022-09-04T16:07:12.218Z,14.5
2022-09-04T16:13:12.204Z,14.3
2022-09-04T16:19:12.214Z,14
2022-09-04T16:25:12.226Z,14
2022-09-04T16:31:12.326Z,13.2
2022-09-04T16:37:12.233Z,13.9
2022-09-04T16:43:12.279Z,13.4
2022-09-04T16:49:13.441Z,13.6
2022-09-04T16:55:12.208Z,13.9
2022-09-04T17:01:14.243Z,13.8
2022-09-04T17:07:12.245Z,14.1
2022-09-04T17:13:12.319Z,13.9
2022-09-04T17:19:12.218Z,14
2022-09-04T17:28:58.705Z,13.8
2022-09-04T17:31:12.417Z,13.5
2022-09-04T17:40:57.153Z,13
2022-09-04T17:43:23.451Z,13.2
2022-09-04T17:49:12.225Z,12.9
2022-09-04T17:55:12.245Z,12.7
2022-09-04T18:01:14.868Z,12.7
2022-09-04T18:07:28.746Z,12.7
2022-09-04T18:13:37.051Z,12.6
2022-09-04T18:19:12.258Z,12.5
2022-09-04T18:25:16.726Z,12.2
2022-09-04T18:37:05.306Z,12.1
2022-09-04T18:37:43.887Z,12
2022-09-04T18:50:25.101Z,12
2022-09-04T18:50:40.776Z,11.8
2022-09-04T18:55:12.267Z,11.6
2022-09-04T19:01:12.427Z,11.3
2022-09-04T19:07:12.252Z,11.4
2022-09-04T19:13:12.274Z,11.3
2022-09-04T19:19:17.237Z,11.1
2022-09-04T19:25:12.314Z,11.1
2022-09-04T19:31:12.305Z,11
2022-09-04T19:37:46.800Z,11.1
2022-09-04T19:46:05.764Z,10.6
2022-09-04T19:51:19.469Z,10.4
2022-09-04T19:55:24.402Z,10.3
2022-09-04T20:01:12.316Z,10.2
2022-09-04T20:07:12.297Z,10
2022-09-04T20:13:12.289Z,10.1
2022-09-04T20:19:12.311Z,9.9
2022-09-04T20:25:12.443Z,9.8
2022-09-04T20:31:35.936Z,9.8
2022-09-04T20:37:12.297Z,9.8
2022-09-04T20:43:12.305Z,9.6
2022-09-04T20:52:55.058Z,9.4
2022-09-04T20:55:12.305Z,9.3
2022-09-04T21:03:19.610Z,9.2
2022-09-04T21:07:12.321Z,9
2022-09-04T21:13:14.397Z,8.9
2022-09-04T21:19:29.036Z,8.8
2022-09-04T21:25:12.323Z,8.8
2022-09-04T21:31:12.354Z,8.7
2022-09-04T21:37:12.365Z,8.6
2022-09-04T21:43:12.317Z,8.4
2022-09-04T21:49:12.314Z,8.3
2022-09-04T21:57:56.372Z,8.3
2022-09-04T22:02:35.106Z,8.3
2022-09-04T22:10:00.500Z,8.1
2022-09-04T22:13:37.244Z,8
2022-09-04T22:19:16.560Z,7.9
2022-09-04T22:25:12.316Z,7.8
2022-09-04T22:31:12.395Z,7.7
2022-09-04T22:37:12.329Z,7.7
2022-09-04T22:43:12.335Z,7.5
2022-09-04T22:49:13.448Z,7.4
2022-09-04T22:55:36.273Z,7.4
2022-09-04T23:01:12.358Z,7.2
2022-09-04T23:11:21.210Z,7.1
2022-09-04T23:14:02.934Z,6.9
2022-09-04T23:22:32.883Z,6.7
2022-09-04T23:26:48.242Z,6.8
2022-09-04T23:31:12.412Z,6.6
2022-09-04T23:37:12.348Z,6.5
2022-09-04T23:43:12.352Z,6.4
2022-09-04T23:49:12.354Z,6.3
2022-09-04T23:55:12.338Z,6.3
